createdAt,value
2023-05-15T00:00:37.426Z,5.77
2023-05-15T00:05:40.481Z,5.50
2023-05-15T00:10:59.770Z,5.50
2023-05-15T00:16:03.542Z,6.20
2023-05-15T00:21:06.480Z,5.73
2023-05-15T00:26:10.852Z,5.37
2023-05-15T00:31:14.918Z,5.53
2023-05-15T00:36:18.339Z,5.60
2023-05-15T00:41:24.133Z,4.87
2023-05-15T00:46:28.475Z,5.27
2023-05-15T00:51:31.515Z,5.10
2023-05-15T00:56:36.337Z,5.47
2023-05-15T01:01:39.267Z,4.60
2023-05-15T01:06:42.213Z,5.20
2023-05-15T01:11:48.559Z,5.00
2023-05-15T01:16:51.513Z,4.70
2023-05-15T01:22:19.342Z,5.20
2023-05-15T01:27:28.300Z,4.63
2023-05-15T01:32:39.332Z,5.50
2023-05-15T01:37:46.455Z,5.03
2023-05-15T01:42:56.280Z,4.90
2023-05-15T01:48:01.978Z,5.40
2023-05-15T01:53:06.306Z,5.90
2023-05-15T01:58:11.168Z,5.17
2023-05-15T02:03:14.589Z,5.70
2023-05-15T02:08:17.761Z,5.50
2023-05-15T02:13:23.494Z,6.80
2023-05-15T02:18:28.383Z,6.07
2023-05-15T02:23:33.898Z,6.17
2023-05-15T02:28:46.317Z,6.43
2023-05-15T02:33:57.068Z,6.43
2023-05-15T02:39:00.678Z,6.10
2023-05-15T02:44:05.690Z,5.70
2023-05-15T02:49:09.455Z,6.37
2023-05-15T02:54:12.749Z,6.47
2023-05-15T02:59:19.836Z,7.13
2023-05-15T03:04:22.909Z,6.73
2023-05-15T03:09:26.442Z,6.80
2023-05-15T03:14:30.783Z,6.90
2023-05-15T03:19:33.755Z,6.40
2023-05-15T03:24:36.757Z,7.13
2023-05-15T03:29:41.019Z,7.03
2023-05-15T03:34:43.899Z,6.33
2023-05-15T03:39:46.813Z,6.60
2023-05-15T03:44:51.393Z,6.40
2023-05-15T03:49:54.375Z,6.70
2023-05-15T03:54:57.301Z,5.63
2023-05-15T04:00:07.442Z,5.03
2023-05-15T04:05:30.342Z,4.80
2023-05-15T04:10:33.792Z,4.87
2023-05-15T04:15:38.454Z,5.87
2023-05-15T04:20:41.405Z,8.03
2023-05-15T04:25:46.771Z,9.53
2023-05-15T04:30:51.184Z,7.50
2023-05-15T04:35:54.311Z,7.03
2023-05-15T04:40:57.180Z,8.63
2023-05-15T04:46:01.473Z,7.70
2023-05-15T04:51:04.376Z,6.90
2023-05-15T04:56:07.398Z,7.10
2023-05-15T05:01:11.679Z,6.83
2023-05-15T05:06:14.663Z,6.67
2023-05-15T05:11:17.574Z,7.23
2023-05-15T05:16:21.880Z,6.33
2023-05-15T05:21:24.776Z,7.17
2023-05-15T05:26:28.227Z,6.50
2023-05-15T05:31:32.545Z,6.30
2023-05-15T05:36:36.962Z,5.73
2023-05-15T05:41:39.848Z,5.80
2023-05-15T05:46:45.323Z,6.27
2023-05-15T05:51:48.462Z,5.27
2023-05-15T05:56:51.384Z,5.57
2023-05-15T06:01:55.663Z,4.90
2023-05-15T06:06:58.767Z,5.20
2023-05-15T06:12:04.687Z,4.90
2023-05-15T06:17:09.096Z,5.13
2023-05-15T06:22:12.136Z,5.70
2023-05-15T06:27:15.032Z,5.60
2023-05-15T06:32:19.318Z,5.70
2023-05-15T06:37:22.324Z,6.47
2023-05-15T06:42:25.380Z,5.93
2023-05-15T06:47:29.805Z,6.83
2023-05-15T06:52:32.706Z,6.27
2023-05-15T06:57:35.697Z,7.40
2023-05-15T07:02:40.098Z,6.53
2023-05-15T07:07:43.779Z,7.20
2023-05-15T07:12:46.746Z,6.50
2023-05-15T07:17:51.113Z,6.53
2023-05-15T07:22:56.706Z,6.90
2023-05-15T07:27:59.806Z,6.90
2023-05-15T07:33:04.506Z,8.00
2023-05-15T07:38:07.563Z,8.53
2023-05-15T07:43:10.488Z,8.20
2023-05-15T07:48:19.133Z,8.37
2023-05-15T07:53:22.055Z,8.10
2023-05-15T07:58:25.037Z,8.33
2023-05-15T08:03:29.432Z,7.63
2023-05-15T08:08:32.747Z,7.60
2023-05-15T08:13:35.709Z,7.43
2023-05-15T08:18:39.970Z,7.03
2023-05-15T08:23:42.950Z,7.33
2023-05-15T08:28:45.881Z,7.87
2023-05-15T08:33:50.141Z,9.20
2023-05-15T08:38:53.037Z,8.30
2023-05-15T08:43:58.865Z,9.13
2023-05-15T08:49:06.223Z,9.30
2023-05-15T08:54:10.187Z,10.07
2023-05-15T08:59:13.079Z,9.33
2023-05-15T09:04:17.328Z,10.10
2023-05-15T09:09:21.369Z,10.10
2023-05-15T09:14:24.256Z,10.47
2023-05-15T09:19:29.110Z,11.00
2023-05-15T09:24:32.149Z,10.57
2023-05-15T09:29:37.059Z,8.70
2023-05-15T09:34:42.699Z,9.20
2023-05-15T09:39:46.296Z,9.53
2023-05-15T09:44:49.198Z,9.40
2023-05-15T09:49:53.851Z,10.37
2023-05-15T09:54:58.185Z,9.43
2023-05-15T10:00:05.230Z,10.10
2023-05-15T10:05:42.529Z,10.47
2023-05-15T10:10:49.062Z,10.40
2023-05-15T10:15:54.181Z,9.13
2023-05-15T10:21:04.005Z,9.13
2023-05-15T10:26:15.342Z,9.10
2023-05-15T10:31:19.896Z,8.93
2023-05-15T10:36:25.315Z,9.03
2023-05-15T10:41:29.977Z,8.47
2023-05-15T10:46:35.894Z,8.60
2023-05-15T10:51:40.739Z,7.40
2023-05-15T10:56:43.789Z,9.40
2023-05-15T11:01:47.147Z,9.20
2023-05-15T11:06:52.466Z,10.10
2023-05-15T11:11:58.017Z,9.37
2023-05-15T11:17:04.072Z,9.30
2023-05-15T11:22:30.715Z,9.53
2023-05-15T11:27:39.334Z,9.83
2023-05-15T11:32:44.048Z,8.20
2023-05-15T11:37:50.536Z,9.67
2023-05-15T11:43:05.710Z,10.30
2023-05-15T11:48:13.648Z,10.87
2023-05-15T11:53:19.685Z,9.47
2023-05-15T11:58:24.414Z,9.10
2023-05-15T12:03:33.455Z,10.53
2023-05-15T12:08:38.656Z,10.60
2023-05-15T12:13:41.606Z,9.97
2023-05-15T12:18:44.510Z,15.40
2023-05-15T12:24:06.286Z,10.53
2023-05-15T12:29:10.745Z,10.80
2023-05-15T12:34:13.779Z,9.97
2023-05-15T12:39:18.282Z,9.30
2023-05-15T12:44:21.876Z,8.57
2023-05-15T12:49:24.904Z,7.80
2023-05-15T12:54:29.228Z,8.10
2023-05-15T12:59:32.616Z,8.43
2023-05-15T13:04:35.550Z,7.10
2023-05-15T13:09:39.895Z,5.97
2023-05-15T13:14:43.374Z,6.50
2023-05-15T13:19:46.339Z,5.90
2023-05-15T13:24:52.829Z,6.03
2023-05-15T13:29:55.982Z,6.20
2023-05-15T13:34:59.707Z,5.70
2023-05-15T13:40:06.653Z,6.13
2023-05-15T13:45:10.995Z,5.97
2023-05-15T13:50:16.632Z,6.00
2023-05-15T13:55:22.994Z,5.57
2023-05-15T14:00:26.545Z,5.60
2023-05-15T14:05:29.785Z,5.67
2023-05-15T14:10:34.994Z,6.43
2023-05-15T14:15:37.916Z,5.73
2023-05-15T14:20:40.849Z,5.53
2023-05-15T14:25:45.134Z,5.40
2023-05-15T14:30:48.004Z,6.00
2023-05-15T14:35:50.910Z,8.73
2023-05-15T14:40:55.529Z,9.43
2023-05-15T14:45:58.464Z,9.37
2023-05-15T14:51:01.718Z,8.73
2023-05-15T14:56:06.612Z,8.27
2023-05-15T15:01:09.871Z,8.17
2023-05-15T15:06:13.128Z,8.00
2023-05-15T15:11:17.404Z,7.80
2023-05-15T15:16:20.446Z,7.10
2023-05-15T15:21:23.397Z,7.80
2023-05-15T15:26:27.786Z,7.23
2023-05-15T15:31:31.765Z,7.20
2023-05-15T15:36:37.479Z,7.27
2023-05-15T15:41:41.803Z,7.03
2023-05-15T15:46:44.669Z,6.70
2023-05-15T15:51:47.631Z,7.07
2023-05-15T15:56:52.519Z,6.30
2023-05-15T16:01:55.715Z,7.07
2023-05-15T16:06:58.591Z,6.70
2023-05-15T16:12:03.656Z,7.07
2023-05-15T16:17:06.601Z,7.63
2023-05-15T16:22:09.600Z,7.40
2023-05-15T16:27:13.847Z,6.67
2023-05-15T16:32:16.733Z,6.53
2023-05-15T16:37:19.691Z,6.40
2023-05-15T16:42:23.924Z,5.90
2023-05-15T16:47:26.942Z,5.70
2023-05-15T16:52:29.969Z,6.10
2023-05-15T16:57:34.205Z,5.67
2023-05-15T17:02:37.372Z,6.07
2023-05-15T17:07:41.019Z,5.67
2023-05-15T17:12:45.909Z,5.60
2023-05-15T17:17:48.847Z,6.13
2023-05-15T17:22:51.853Z,5.73
2023-05-15T17:27:56.134Z,5.70
2023-05-15T17:33:00.266Z,5.50
2023-05-15T17:38:03.253Z,5.80
2023-05-15T17:43:09.814Z,6.03
2023-05-15T17:48:12.858Z,7.83
2023-05-15T17:53:16.486Z,9.03
2023-05-15T17:58:21.259Z,8.20
2023-05-15T18:03:24.393Z,7.47
2023-05-15T18:08:27.404Z,7.60
2023-05-15T18:13:31.662Z,6.80
2023-05-15T18:18:35.969Z,6.60
2023-05-15T18:23:38.923Z,5.77
2023-05-15T18:28:43.224Z,6.43
2023-05-15T18:33:46.769Z,5.87
2023-05-15T18:38:49.748Z,5.77
2023-05-15T18:43:53.970Z,6.00
2023-05-15T18:48:56.977Z,6.20
2023-05-15T18:53:59.832Z,5.80
2023-05-15T18:59:04.128Z,6.20
2023-05-15T19:04:07.091Z,8.37
2023-05-15T19:09:10.569Z,6.63
2023-05-15T19:14:15.713Z,6.40
2023-05-15T19:19:19.002Z,6.50
2023-05-15T19:24:22.143Z,6.83
2023-05-15T19:29:26.396Z,6.67
2023-05-15T19:34:29.440Z,7.50
2023-05-15T19:39:33.658Z,6.57
2023-05-15T19:44:37.918Z,7.20
2023-05-15T19:49:40.835Z,6.50
2023-05-15T19:54:44.313Z,6.53
2023-05-15T19:59:48.654Z,6.90
2023-05-15T20:04:51.802Z,6.53
2023-05-15T20:09:56.247Z,7.90
2023-05-15T20:15:00.740Z,6.53
2023-05-15T20:20:08.100Z,6.50
2023-05-15T20:25:11.141Z,6.37
2023-05-15T20:30:15.629Z,6.13
2023-05-15T20:35:18.584Z,6.33
2023-05-15T20:40:23.003Z,6.70
2023-05-15T20:45:27.945Z,6.70
2023-05-15T20:50:30.846Z,9.60
2023-05-15T20:55:33.777Z,10.83
2023-05-15T21:00:38.136Z,8.03
2023-05-15T21:05:40.998Z,7.60
2023-05-15T21:10:43.911Z,7.67
2023-05-15T21:15:48.209Z,8.50
2023-05-15T21:20:51.710Z,8.50
2023-05-15T21:25:54.582Z,8.57
2023-05-15T21:31:00.523Z,8.30
2023-05-15T21:36:03.495Z,8.20
2023-05-15T21:41:06.529Z,7.80
2023-05-15T21:46:10.881Z,7.97
2023-05-15T21:51:13.807Z,9.17
2023-05-15T21:56:16.724Z,8.20
2023-05-15T22:01:21.104Z,8.90
2023-05-15T22:06:24.156Z,8.80
2023-05-15T22:11:27.195Z,8.50
2023-05-15T22:16:31.462Z,8.97
2023-05-15T22:21:34.515Z,8.90
2023-05-15T22:26:37.348Z,8.70
2023-05-15T22:31:41.642Z,9.47
2023-05-15T22:36:44.926Z,8.30
2023-05-15T22:41:47.948Z,9.87
2023-05-15T22:46:52.273Z,9.43
2023-05-15T22:51:55.912Z,9.37
2023-05-15T22:56:58.796Z,9.03
2023-05-15T23:02:03.934Z,9.27
2023-05-15T23:07:06.909Z,9.00
2023-05-15T23:12:09.903Z,9.97
2023-05-15T23:17:14.269Z,9.33
2023-05-15T23:22:17.192Z,9.80
2023-05-15T23:27:20.141Z,11.70
2023-05-15T23:32:24.491Z,9.67
2023-05-15T23:37:27.424Z,11.47
2023-05-15T23:42:31.189Z,10.67
2023-05-15T23:47:35.611Z,10.37
2023-05-15T23:52:38.517Z,9.80
2023-05-15T23:57:41.457Z,9.50
